createdAt,value
2019-01-22T00:01:20.291Z,101118.01
2019-01-22T00:03:49.782Z,101122.70
2019-01-22T00:06:19.464Z,101113.05
2019-01-22T00:08:48.947Z,101111.97
2019-01-22T00:11:18.446Z,101108.58
2019-01-22T00:13:47.928Z,101115.79
2019-01-22T00:16:17.412Z,101114.98
2019-01-22T00:18:46.888Z,101110.70
2019-01-22T00:21:16.369Z,101104.00
2019-01-22T00:23:45.861Z,101101.97
2019-01-22T00:26:15.368Z,101100.23
2019-01-22T00:28:44.860Z,101100.34
2019-01-22T00:31:14.346Z,101094.17
2019-01-22T00:33:43.831Z,101099.11
2019-01-22T00:36:13.309Z,101098.67
2019-01-22T00:38:42.852Z,101093.31
2019-01-22T00:41:12.346Z,101091.45
2019-01-22T00:43:42.790Z,101087.77
2019-01-22T00:46:12.357Z,101085.52
2019-01-22T00:48:41.840Z,101080.61
2019-01-22T00:51:11.321Z,101078.58
2019-01-22T00:53:40.807Z,101075.84
2019-01-22T00:56:10.361Z,101065.09
2019-01-22T00:58:40.109Z,101063.87
2019-01-22T01:01:09.605Z,101064.34
2019-01-22T01:03:39.082Z,101064.69
2019-01-22T01:06:08.640Z,101055.72
2019-01-22T01:08:38.171Z,101052.72
2019-01-22T01:11:07.613Z,101042.88
2019-01-22T01:13:37.095Z,101042.98
2019-01-22T01:16:06.575Z,101033.42
2019-01-22T01:18:36.054Z,101031.61
2019-01-22T01:21:05.623Z,101032.83
2019-01-22T01:23:35.101Z,101028.18
2019-01-22T01:26:04.753Z,101028.88
2019-01-22T01:28:34.236Z,101027.18
2019-01-22T01:31:03.722Z,101019.64
2019-01-22T01:33:33.193Z,101019.46
2019-01-22T01:36:02.675Z,101019.92
2019-01-22T01:38:32.544Z,101014.23
2019-01-22T01:41:02.047Z,101012.23
2019-01-22T01:43:31.527Z,101014.91
2019-01-22T01:46:01.014Z,101006.89
2019-01-22T01:48:30.499Z,101004.20
2019-01-22T01:50:59.991Z,101007.79
2019-01-22T01:53:29.461Z,101000.31
2019-01-22T01:55:58.942Z,100993.19
2019-01-22T01:58:28.418Z,100998.48
2019-01-22T02:00:57.903Z,100993.27
2019-01-22T02:03:27.379Z,100994.73
2019-01-22T02:05:57.265Z,100988.34
2019-01-22T02:08:26.757Z,100981.41
2019-01-22T02:10:56.264Z,100978.76
2019-01-22T02:13:36.363Z,100974.50
2019-01-22T02:16:53.985Z,100966.08
2019-01-22T02:20:05.829Z,100963.06
2019-01-22T02:23:30.720Z,100966.03
2019-01-22T02:26:29.191Z,100965.70
2019-01-22T02:29:41.607Z,100959.41
2019-01-22T02:32:51.134Z,100946.03
2019-01-22T02:35:46.240Z,100955.22
2019-01-22T02:38:37.010Z,100948.97
2019-01-22T02:41:26.370Z,100940.34
2019-01-22T02:44:33.277Z,100936.86
2019-01-22T02:47:27.816Z,100927.98
2019-01-22T02:50:32.395Z,100921.49
2019-01-22T02:53:39.050Z,100923.58
2019-01-22T02:56:32.156Z,100904.34
2019-01-22T02:59:32.927Z,100900.09
2019-01-22T03:02:27.117Z,100897.08
2019-01-22T03:05:21.776Z,100892.27
2019-01-22T03:08:07.673Z,100882.33
2019-01-22T03:10:51.694Z,100880.75
2019-01-22T03:13:48.184Z,100881.25
2019-01-22T03:16:48.239Z,100869.48
2019-01-22T03:19:27.096Z,100865.30
2019-01-22T03:22:15.342Z,100857.59
2019-01-22T03:25:21.606Z,100856.63
2019-01-22T03:28:50.796Z,100854.59
2019-01-22T03:31:30.034Z,100853.77
2019-01-22T03:34:12.556Z,100841.77
2019-01-22T03:37:03.443Z,100835.81
2019-01-22T03:40:16.250Z,100830.78
2019-01-22T03:43:17.719Z,100825.39
2019-01-22T03:45:57.031Z,100825.28
2019-01-22T03:49:08.219Z,100825.28
2019-01-22T03:52:10.730Z,100820.75
2019-01-22T03:55:36.721Z,100818.94
2019-01-22T03:58:11.797Z,100815.56
2019-01-22T04:01:00.355Z,100818.39
2019-01-22T04:03:29.856Z,100810.66
2019-01-22T04:06:02.326Z,100809.22
2019-01-22T04:08:31.817Z,100796.56
2019-01-22T04:11:16.107Z,100792.80
2019-01-22T04:13:45.603Z,100794.27
2019-01-22T04:16:15.077Z,100783.45
2019-01-22T04:18:44.564Z,100784.40
2019-01-22T04:21:16.245Z,100773.80
2019-01-22T04:24:01.650Z,100771.56
2019-01-22T04:27:04.142Z,100769.05
2019-01-22T04:30:16.955Z,100762.02
2019-01-22T04:33:17.700Z,100761.25
2019-01-22T04:36:43.216Z,100755.54
2019-01-22T04:39:44.951Z,100747.55
2019-01-22T04:42:32.267Z,100738.87
2019-01-22T04:45:28.916Z,100735.67
2019-01-22T04:48:28.326Z,100729.23
2019-01-22T04:51:25.680Z,100726.82
2019-01-22T04:54:11.605Z,100726.44
2019-01-22T04:57:08.735Z,100720.94
2019-01-22T05:00:15.704Z,100724.70
2019-01-22T05:03:08.350Z,100718.84
2019-01-22T05:06:01.634Z,100721.73
2019-01-22T05:09:06.267Z,100724.45
2019-01-22T05:12:01.769Z,100720.59
2019-01-22T05:15:08.828Z,100715.77
2019-01-22T05:17:54.333Z,100708.07
2019-01-22T05:20:30.944Z,100706.02
2019-01-22T05:23:38.420Z,100708.52
2019-01-22T05:26:53.254Z,100702.16
2019-01-22T05:29:44.053Z,100702.45
2019-01-22T05:32:38.392Z,100703.53
2019-01-22T05:35:50.820Z,100701.69
2019-01-22T05:38:49.345Z,100701.78
2019-01-22T05:41:56.537Z,100694.19
2019-01-22T05:45:10.169Z,100690.30
2019-01-22T05:47:58.813Z,100688.86
2019-01-22T05:51:05.681Z,100683.36
2019-01-22T05:53:55.413Z,100677.69
2019-01-22T05:56:33.805Z,100672.08
2019-01-22T05:59:36.576Z,100664.45
2019-01-22T06:02:37.941Z,100662.44
2019-01-22T06:05:48.926Z,100663.13
2019-01-22T06:08:49.357Z,100657.31
2019-01-22T06:11:57.568Z,100652.42
2019-01-22T06:14:41.499Z,100655.49
2019-01-22T06:17:31.843Z,100653.28
2019-01-22T06:21:01.041Z,100651.06
2019-01-22T06:24:15.082Z,100647.03
2019-01-22T06:27:21.533Z,100638.94
2019-01-22T06:30:35.602Z,100632.68
2019-01-22T06:33:49.423Z,100627.95
2019-01-22T06:36:47.011Z,100622.83
2019-01-22T06:40:04.184Z,100621.02
2019-01-22T06:42:46.623Z,100614.64
2019-01-22T06:45:45.833Z,100607.33
2019-01-22T06:48:47.274Z,100611.27
2019-01-22T06:51:31.330Z,100604.90
2019-01-22T06:54:16.662Z,100602.87
2019-01-22T06:56:57.664Z,100598.66
2019-01-22T07:00:09.777Z,100600.47
2019-01-22T07:02:55.370Z,100596.25
2019-01-22T07:05:35.932Z,100592.66
2019-01-22T07:08:31.534Z,100591.23
2019-01-22T07:11:13.547Z,100586.97
2019-01-22T07:14:11.406Z,100581.58
2019-01-22T07:17:03.535Z,100576.50
2019-01-22T07:20:11.433Z,100575.87
2019-01-22T07:23:13.413Z,100573.88
2019-01-22T07:26:01.044Z,100577.09
2019-01-22T07:29:30.142Z,100568.69
2019-01-22T07:32:27.179Z,100564.26
2019-01-22T07:35:21.932Z,100565.41
2019-01-22T07:38:00.429Z,100565.22
2019-01-22T07:41:12.826Z,100565.02
2019-01-22T07:43:58.813Z,100562.97
2019-01-22T07:47:21.547Z,100558.39
2019-01-22T07:49:59.784Z,100556.27
2019-01-22T07:52:47.913Z,100552.58
2019-01-22T07:55:52.447Z,100554.70
2019-01-22T07:58:47.509Z,100550.39
2019-01-22T08:02:01.508Z,100545.07
2019-01-22T08:05:01.181Z,100543.92
2019-01-22T08:07:51.085Z,100538.43
2019-01-22T08:10:33.908Z,100535.27
2019-01-22T08:13:47.614Z,100531.59
2019-01-22T08:16:47.944Z,100526.11
2019-01-22T08:19:44.222Z,100522.94
2019-01-22T08:22:36.543Z,100527.09
2019-01-22T08:25:32.687Z,100524.09
2019-01-22T08:28:56.179Z,100520.42
2019-01-22T08:32:13.126Z,100517.05
2019-01-22T08:35:09.599Z,100513.78
2019-01-22T08:38:10.981Z,100511.37
2019-01-22T08:41:40.487Z,100503.16
2019-01-22T08:44:36.090Z,100503.82
2019-01-22T08:47:25.059Z,100493.48
2019-01-22T08:50:22.473Z,100486.53
2019-01-22T08:53:23.564Z,100485.72
2019-01-22T08:56:25.330Z,100481.18
2019-01-22T08:59:33.906Z,100476.22
2019-01-22T09:02:40.516Z,100480.34
2019-01-22T09:05:45.807Z,100471.50
2019-01-22T09:08:33.698Z,100465.62
2019-01-22T09:11:31.373Z,100465.97
2019-01-22T09:14:36.253Z,100464.39
2019-01-22T09:17:24.036Z,100452.81
2019-01-22T09:20:02.343Z,100448.36
2019-01-22T09:23:09.308Z,100449.52
2019-01-22T09:25:48.578Z,100444.84
2019-01-22T09:28:54.131Z,100437.91
2019-01-22T09:32:02.635Z,100439.56
2019-01-22T09:35:15.142Z,100430.25
2019-01-22T09:37:52.222Z,100428.19
2019-01-22T09:40:24.382Z,100424.28
2019-01-22T09:42:52.973Z,100421.16
2019-01-22T09:45:22.512Z,100414.20
2019-01-22T09:47:51.981Z,100411.56
2019-01-22T09:50:21.503Z,100416.67
2019-01-22T09:52:50.996Z,100410.50
2019-01-22T09:55:22.573Z,100406.14
2019-01-22T09:57:51.756Z,100399.53
2019-01-22T10:00:21.635Z,100401.74
2019-01-22T10:02:51.126Z,100392.89
2019-01-22T10:05:20.770Z,100392.73
2019-01-22T10:07:50.320Z,100384.89
2019-01-22T10:10:20.831Z,100388.59
2019-01-22T10:12:50.333Z,100377.45
2019-01-22T10:15:21.136Z,100380.20
2019-01-22T10:17:50.707Z,100374.77
2019-01-22T10:20:21.808Z,100370.28
2019-01-22T10:22:51.394Z,100368.02
2019-01-22T10:25:20.993Z,100367.78
2019-01-22T10:27:50.489Z,100357.94
2019-01-22T10:30:21.932Z,100351.02
2019-01-22T10:32:51.585Z,100354.79
2019-01-22T10:35:21.173Z,100348.66
2019-01-22T10:37:50.720Z,100343.31
2019-01-22T10:40:21.941Z,100340.02
2019-01-22T10:42:51.755Z,100332.61
2019-01-22T10:45:21.326Z,100328.50
2019-01-22T10:47:50.816Z,100318.77
2019-01-22T10:50:20.984Z,100316.95
2019-01-22T10:52:50.519Z,100308.19
2019-01-22T10:55:20.088Z,100300.86
2019-01-22T10:57:49.646Z,100289.66
2019-01-22T11:00:22.119Z,100282.75
2019-01-22T11:02:51.612Z,100284.52
2019-01-22T11:05:24.360Z,100280.27
2019-01-22T11:07:53.852Z,100280.39
2019-01-22T11:10:23.461Z,100270.34
2019-01-22T11:12:53.007Z,100263.76
2019-01-22T11:15:27.878Z,100265.84
2019-01-22T11:17:53.779Z,100266.64
2019-01-22T11:20:24.874Z,100263.23
2019-01-22T11:22:54.383Z,100255.31
2019-01-22T11:25:25.997Z,100254.33
2019-01-22T11:27:55.586Z,100252.95
2019-01-22T11:30:25.496Z,100251.14
2019-01-22T11:32:54.999Z,100242.12
2019-01-22T11:35:24.891Z,100232.11
2019-01-22T11:37:54.456Z,100227.83
2019-01-22T11:40:29.603Z,100227.83
2019-01-22T11:42:59.166Z,100218.06
2019-01-22T11:45:28.740Z,100216.73
2019-01-22T11:47:58.234Z,100216.08
2019-01-22T11:50:27.719Z,100204.38
2019-01-22T11:52:57.259Z,100201.73
2019-01-22T11:55:26.740Z,100194.61
2019-01-22T11:57:56.236Z,100193.50
2019-01-22T12:00:32.586Z,100178.73
2019-01-22T12:03:02.076Z,100180.46
2019-01-22T12:05:31.667Z,100168.83
2019-01-22T12:08:02.258Z,100169.11
2019-01-22T12:10:31.860Z,100164.53
2019-01-22T12:13:01.397Z,100156.48
2019-01-22T12:15:31.017Z,100154.61
2019-01-22T12:18:00.622Z,100148.98
2019-01-22T12:20:31.217Z,100142.27
2019-01-22T12:23:00.813Z,100139.61
2019-01-22T12:25:30.386Z,100134.86
2019-01-22T12:27:59.967Z,100130.16
2019-01-22T12:30:31.580Z,100123.98
2019-01-22T12:33:01.261Z,100125.20
2019-01-22T12:35:30.843Z,100121.94
2019-01-22T12:38:00.451Z,100113.25
2019-01-22T12:40:30.041Z,100111.14
2019-01-22T12:42:59.643Z,100102.31
2019-01-22T12:45:31.506Z,100103.27
2019-01-22T12:48:01.086Z,100097.80
2019-01-22T12:50:30.850Z,100098.53
2019-01-22T12:53:00.331Z,100097.03
2019-01-22T12:55:29.918Z,100089.92
2019-01-22T12:57:59.441Z,100082.35
2019-01-22T13:00:30.379Z,100079.67
2019-01-22T13:02:59.951Z,100071.53
2019-01-22T13:05:39.588Z,100066.75
2019-01-22T13:08:09.149Z,100061.36
2019-01-22T13:10:38.737Z,100055.53
2019-01-22T13:13:08.306Z,100047.27
2019-01-22T13:15:37.799Z,100044.74
2019-01-22T13:18:07.448Z,100036.38
2019-01-22T13:20:36.951Z,100029.75
2019-01-22T13:23:06.566Z,100038.81
2019-01-22T13:25:37.109Z,100036.38
2019-01-22T13:28:06.699Z,100037.08
2019-01-22T13:30:36.356Z,100039.23
2019-01-22T13:33:05.914Z,100036.95
2019-01-22T13:35:35.482Z,100025.59
2019-01-22T13:38:05.453Z,100025.37
2019-01-22T13:40:34.995Z,100016.77
2019-01-22T13:43:05.020Z,100016.34
2019-01-22T13:45:34.738Z,100012.78
2019-01-22T13:48:05.483Z,100005.31
2019-01-22T13:50:35.005Z,99999.94
2019-01-22T13:53:04.956Z,99993.87
2019-01-22T13:55:36.252Z,99988.93
2019-01-22T13:58:06.173Z,99982.00
2019-01-22T14:00:36.707Z,99983.20
2019-01-22T14:03:06.659Z,99983.13
2019-01-22T14:05:36.259Z,99977.00
2019-01-22T14:08:05.888Z,99982.09
2019-01-22T14:10:35.489Z,99972.08
2019-01-22T14:13:05.299Z,99979.92
2019-01-22T14:15:40.273Z,99969.11
2019-01-22T14:18:11.543Z,99965.67
2019-01-22T14:20:41.058Z,99954.45
2019-01-22T14:23:10.559Z,99964.09
2019-01-22T14:25:40.087Z,99950.27
2019-01-22T14:28:09.572Z,99945.98
2019-01-22T14:30:40.632Z,99942.95
2019-01-22T14:33:10.108Z,99944.73
2019-01-22T14:35:39.687Z,99933.53
2019-01-22T14:38:09.255Z,99935.40
2019-01-22T14:40:38.746Z,99931.00
2019-01-22T14:43:08.249Z,99927.25
2019-01-22T14:45:37.741Z,99926.44
2019-01-22T14:48:07.221Z,99923.36
2019-01-22T14:50:36.724Z,99929.51
2019-01-22T14:53:06.216Z,99921.46
2019-01-22T14:55:35.721Z,99920.98
2019-01-22T14:58:05.489Z,99921.93
2019-01-22T15:00:34.981Z,99922.12
2019-01-22T15:03:04.480Z,99921.97
2019-01-22T15:05:34.133Z,99913.53
2019-01-22T15:08:04.609Z,99909.36
2019-01-22T15:10:34.146Z,99878.30
2019-01-22T15:13:03.788Z,99903.82
2019-01-22T15:15:33.270Z,99901.66
2019-01-22T15:18:02.765Z,99908.48
2019-01-22T15:20:32.267Z,99898.75
2019-01-22T15:23:01.766Z,99901.70
2019-01-22T15:25:31.350Z,99906.36
2019-01-22T15:28:00.816Z,99910.88
2019-01-22T15:30:32.715Z,99916.02
2019-01-22T15:33:02.280Z,99917.73
2019-01-22T15:35:31.847Z,99914.01
2019-01-22T15:38:01.351Z,99906.62
2019-01-22T15:40:31.456Z,99898.12
2019-01-22T15:43:00.948Z,99897.91
2019-01-22T15:45:30.661Z,99891.47
2019-01-22T15:48:00.132Z,99896.03
2019-01-22T15:50:29.708Z,99892.91
2019-01-22T15:52:59.282Z,99886.98
2019-01-22T15:55:30.973Z,99886.16
2019-01-22T15:58:00.465Z,99886.30
2019-01-22T16:00:30.023Z,99886.30
2019-01-22T16:02:59.501Z,99884.59
2019-01-22T16:05:29.084Z,99881.20
2019-01-22T16:07:58.577Z,99883.76
2019-01-22T16:10:28.063Z,99875.92
2019-01-22T16:12:57.566Z,99879.55
2019-01-22T16:15:27.108Z,99874.16
2019-01-22T16:17:56.592Z,99867.91
2019-01-22T16:20:27.097Z,99870.89
2019-01-22T16:22:56.660Z,99870.80
2019-01-22T16:25:26.506Z,99872.92
2019-01-22T16:27:57.411Z,99873.00
2019-01-22T16:30:27.858Z,99871.30
2019-01-22T16:32:57.531Z,99863.96
2019-01-22T16:35:27.748Z,99864.09
2019-01-22T16:49:07.537Z,99851.95
2019-01-22T16:55:28.067Z,99863.73
2019-01-22T16:57:57.635Z,99859.20
2019-01-22T17:00:29.016Z,99861.78
2019-01-22T17:02:58.610Z,99862.29
2019-01-22T17:05:28.281Z,99860.01
2019-01-22T17:07:57.768Z,99860.01
2019-01-22T17:10:27.362Z,99859.68
2019-01-22T17:12:56.917Z,99858.08
2019-01-22T17:15:26.574Z,99850.48
2019-01-22T17:17:56.053Z,99854.30
2019-01-22T17:20:28.131Z,99853.28
2019-01-22T17:23:01.988Z,99852.66
2019-01-22T17:25:28.941Z,99846.41
2019-01-22T17:27:58.688Z,99849.47
2019-01-22T17:30:30.897Z,99845.62
2019-01-22T17:33:05.328Z,99836.36
2019-01-22T17:35:36.210Z,99837.50
2019-01-22T17:38:05.792Z,99824.15
2019-01-22T17:40:36.323Z,99834.62
2019-01-22T17:43:08.797Z,99828.19
2019-01-22T17:45:38.325Z,99827.02
2019-01-22T17:48:08.525Z,99824.50
2019-01-22T17:50:45.191Z,99824.07
2019-01-22T17:53:14.714Z,99813.70
2019-01-22T17:55:44.208Z,99746.05
2019-01-22T17:58:13.863Z,99808.88
2019-01-22T18:00:43.426Z,99800.12
2019-01-22T18:03:12.988Z,99807.31
2019-01-22T18:05:42.529Z,99799.12
2019-01-22T18:08:12.147Z,99807.19
2019-01-22T18:10:41.742Z,99807.19
2019-01-22T18:13:11.791Z,99804.03
2019-01-22T18:15:41.366Z,99800.75
2019-01-22T18:18:10.867Z,99810.81
2019-01-22T18:20:40.373Z,99801.48
2019-01-22T18:23:09.994Z,99799.15
2019-01-22T18:25:39.484Z,99800.32
2019-01-22T18:28:11.039Z,99795.70
2019-01-22T18:30:41.581Z,99800.53
2019-01-22T18:33:11.177Z,99793.80
2019-01-22T18:35:42.854Z,99800.02
2019-01-22T18:38:14.474Z,99794.95
2019-01-22T18:40:43.990Z,99795.73
2019-01-22T18:43:14.191Z,99797.84
2019-01-22T18:45:43.744Z,99686.15
2019-01-22T18:48:13.203Z,99795.98
2019-01-22T18:50:42.750Z,99792.25
2019-01-22T18:53:12.659Z,99792.50
2019-01-22T18:55:42.162Z,99793.11
2019-01-22T18:58:11.699Z,99795.04
2019-01-22T19:00:41.287Z,99804.11
2019-01-22T19:03:10.873Z,99795.95
2019-01-22T19:05:40.418Z,99805.49
2019-01-22T19:08:09.894Z,99804.66
2019-01-22T19:10:39.773Z,99802.91
2019-01-22T19:13:09.337Z,99739.70
2019-01-22T19:15:39.013Z,99806.75
2019-01-22T19:18:08.593Z,99807.66
2019-01-22T19:20:38.149Z,99807.02
2019-01-22T19:23:07.638Z,99813.50
2019-01-22T19:25:37.158Z,99806.11
2019-01-22T19:28:06.739Z,99806.32
2019-01-22T19:30:36.272Z,99804.12
2019-01-22T19:33:05.935Z,99807.32
2019-01-22T19:35:35.445Z,99804.55
2019-01-22T19:38:05.024Z,99804.86
2019-01-22T19:40:34.520Z,99796.57
2019-01-22T19:43:04.201Z,99797.71
2019-01-22T19:45:36.982Z,99798.36
2019-01-22T19:48:07.017Z,99800.80
2019-01-22T19:50:36.482Z,99803.94
2019-01-22T19:53:07.076Z,99801.65
2019-01-22T19:55:36.653Z,99799.53
2019-01-22T19:58:06.226Z,99800.25
2019-01-22T20:00:37.984Z,99799.64
2019-01-22T20:03:08.506Z,99798.89
2019-01-22T20:05:38.129Z,99800.12
2019-01-22T20:08:08.201Z,99795.59
2019-01-22T20:10:37.778Z,99799.00
2019-01-22T20:13:07.421Z,99798.39
2019-01-22T20:15:37.044Z,99797.56
2019-01-22T20:18:06.701Z,99796.72
2019-01-22T20:20:36.463Z,99794.98
2019-01-22T20:23:06.996Z,99793.67
2019-01-22T20:25:36.628Z,99792.78
2019-01-22T20:28:06.145Z,99794.34
2019-01-22T20:30:37.456Z,99792.78
2019-01-22T20:33:06.991Z,99785.73
2019-01-22T20:35:36.483Z,99788.80
2019-01-22T20:38:06.703Z,99787.73
2019-01-22T20:40:36.258Z,99784.34
2019-01-22T20:43:05.893Z,99791.36
2019-01-22T20:45:35.479Z,99790.50
2019-01-22T20:48:05.793Z,99791.28
2019-01-22T20:50:35.452Z,99751.88
2019-01-22T20:53:05.035Z,99792.83
2019-01-22T20:55:34.697Z,99789.84
2019-01-22T20:58:04.499Z,99791.36
2019-01-22T21:00:34.062Z,99789.58
2019-01-22T21:03:03.650Z,99785.88
2019-01-22T21:05:33.100Z,99789.42
2019-01-22T21:08:02.619Z,99787.06
2019-01-22T21:10:33.750Z,99789.69
2019-01-22T21:13:03.354Z,99782.95
2019-01-22T21:15:33.975Z,99785.54
2019-01-22T21:18:03.527Z,99783.03
2019-01-22T21:20:33.574Z,99785.02
2019-01-22T21:23:03.171Z,99720.91
2019-01-22T21:25:32.837Z,99780.70
2019-01-22T21:28:02.422Z,99775.38
2019-01-22T21:30:34.069Z,99769.90
2019-01-22T21:33:04.528Z,99770.81
2019-01-22T21:35:34.212Z,99766.61
2019-01-22T21:38:03.872Z,99772.70
2019-01-22T21:40:33.430Z,99769.98
2019-01-22T21:43:04.281Z,99775.44
2019-01-22T21:45:33.842Z,99771.60
2019-01-22T21:48:03.359Z,99772.44
2019-01-22T21:50:32.828Z,99772.91
2019-01-22T21:53:02.438Z,99768.17
2019-01-22T21:55:31.934Z,99763.75
2019-01-22T21:58:01.529Z,99759.74
2019-01-22T22:00:31.010Z,99761.64
2019-01-22T22:03:00.530Z,99752.31
2019-01-22T22:05:31.286Z,99760.65
2019-01-22T22:08:00.961Z,99753.65
2019-01-22T22:10:30.450Z,99752.55
2019-01-22T22:13:00.002Z,99749.24
2019-01-22T22:15:29.546Z,99742.58
2019-01-22T22:17:59.109Z,99738.56
2019-01-22T22:20:28.595Z,99744.08
2019-01-22T22:22:58.472Z,99736.43
2019-01-22T22:25:27.972Z,99742.36
2019-01-22T22:27:57.521Z,99740.20
2019-01-22T22:30:32.142Z,99737.27
2019-01-22T22:33:02.694Z,99733.22
2019-01-22T22:35:32.646Z,99730.45
2019-01-22T22:38:02.285Z,99730.63
2019-01-22T22:40:31.784Z,99723.78
2019-01-22T22:43:01.264Z,99729.07
2019-01-22T22:45:31.714Z,99725.31
2019-01-22T22:48:01.215Z,99718.87
2019-01-22T22:50:32.073Z,99720.27
2019-01-22T22:53:01.646Z,99719.05
2019-01-22T22:55:31.190Z,99715.47
2019-01-22T22:58:00.676Z,99717.11
2019-01-22T23:00:47.778Z,99710.77
2019-01-22T23:03:19.072Z,99703.12
2019-01-22T23:05:48.828Z,99701.91
2019-01-22T23:08:18.311Z,99696.04
2019-01-22T23:10:47.794Z,99691.59
2019-01-22T23:13:17.375Z,99688.39
2019-01-22T23:15:46.863Z,99686.44
2019-01-22T23:18:16.570Z,99687.05
2019-01-22T23:20:46.047Z,99672.41
2019-01-22T23:23:15.549Z,99684.67
2019-01-22T23:25:46.141Z,99680.84
2019-01-22T23:28:15.668Z,99679.27
2019-01-22T23:30:45.152Z,99671.75
2019-01-22T23:33:14.640Z,99673.47
2019-01-22T23:35:44.142Z,99673.53
2019-01-22T23:38:13.651Z,99667.70
2019-01-22T23:40:43.135Z,99669.01
2019-01-22T23:43:12.645Z,99670.56
2019-01-22T23:45:42.134Z,99658.48
2019-01-22T23:48:12.519Z,99657.99
2019-01-22T23:50:42.125Z,99631.90
2019-01-22T23:53:11.799Z,99653.73
2019-01-22T23:55:41.297Z,99657.78
2019-01-22T23:58:10.844Z,99653.86
